createdAt,value
2023-05-02T00:02:10.900Z,8.33
2023-05-02T00:04:38.999Z,6.93
2023-05-02T00:07:07.121Z,6.87
2023-05-02T00:09:35.417Z,9.73
2023-05-02T00:12:04.107Z,8.53
2023-05-02T00:14:31.908Z,6.37
2023-05-02T00:16:59.872Z,7.33
2023-05-02T00:19:29.185Z,6.87
2023-05-02T00:21:56.998Z,7.50
2023-05-02T00:24:24.892Z,7.53
2023-05-02T00:26:52.703Z,8.33
2023-05-02T00:29:20.996Z,6.30
2023-05-02T00:31:48.841Z,9.90
2023-05-02T00:34:16.826Z,6.07
2023-05-02T00:36:47.126Z,7.00
2023-05-02T00:39:14.957Z,8.33
2023-05-02T00:41:42.937Z,5.53
2023-05-02T00:44:10.810Z,9.30
2023-05-02T00:46:39.196Z,9.37
2023-05-02T00:49:07.103Z,8.83
2023-05-02T00:51:35.275Z,6.83
2023-05-02T00:54:05.413Z,6.50
2023-05-02T00:56:33.280Z,6.37
2023-05-02T00:59:01.519Z,8.03
2023-05-02T01:01:40.012Z,6.10
2023-05-02T01:04:23.056Z,5.83
2023-05-02T01:10:53.344Z,7.03
2023-05-02T01:13:24.416Z,6.47
2023-05-02T01:15:54.517Z,5.13
2023-05-02T01:18:27.003Z,4.73
2023-05-02T01:21:07.840Z,6.97
2023-05-02T01:23:45.808Z,5.50
2023-05-02T01:26:28.593Z,7.77
2023-05-02T01:29:00.735Z,6.97
2023-05-02T01:31:32.811Z,7.73
2023-05-02T01:34:03.788Z,7.53
2023-05-02T01:36:33.791Z,6.80
2023-05-02T01:39:03.899Z,6.53
2023-05-02T01:41:33.820Z,6.63
2023-05-02T01:44:04.764Z,6.67
2023-05-02T01:46:38.402Z,7.43
2023-05-02T01:49:12.381Z,5.70
2023-05-02T01:51:47.333Z,3.80
2023-05-02T01:54:17.631Z,6.23
2023-05-02T01:56:47.436Z,9.43
2023-05-02T01:59:20.025Z,6.93
2023-05-02T02:01:49.852Z,5.77
2023-05-02T02:04:19.497Z,6.87
2023-05-02T02:06:52.674Z,5.70
2023-05-02T02:09:21.169Z,5.33
2023-05-02T02:11:55.015Z,8.07
2023-05-02T02:14:29.339Z,7.37
2023-05-02T02:17:01.496Z,6.00
2023-05-02T02:19:31.922Z,7.63
2023-05-02T02:22:01.749Z,6.90
2023-05-02T02:24:31.646Z,4.83
2023-05-02T02:26:59.820Z,5.03
2023-05-02T02:29:29.721Z,5.90
2023-05-02T02:32:00.659Z,6.27
2023-05-02T02:34:29.544Z,5.67
2023-05-02T02:37:05.589Z,6.80
2023-05-02T02:39:49.965Z,5.00
2023-05-02T02:42:26.749Z,4.30
2023-05-02T02:45:10.002Z,7.07
2023-05-02T02:47:46.945Z,8.37
2023-05-02T02:50:21.866Z,8.63
2023-05-02T02:52:56.838Z,6.03
2023-05-02T02:55:38.920Z,6.73
2023-05-02T02:58:20.355Z,5.57
2023-05-02T03:00:56.132Z,6.00
2023-05-02T03:03:29.281Z,6.03
2023-05-02T03:05:59.083Z,6.53
2023-05-02T03:08:27.299Z,8.07
2023-05-02T03:10:55.782Z,5.93
2023-05-02T03:13:25.437Z,9.50
2023-05-02T03:16:21.576Z,8.57
2023-05-02T03:18:49.677Z,5.47
2023-05-02T03:21:17.759Z,5.57
2023-05-02T03:23:45.833Z,9.30
2023-05-02T03:26:14.004Z,7.40
2023-05-02T03:28:42.693Z,6.93
2023-05-02T03:31:13.364Z,7.03
2023-05-02T03:33:41.790Z,5.90
2023-05-02T03:36:10.114Z,7.70
2023-05-02T03:38:38.906Z,6.60
2023-05-02T03:41:07.186Z,6.80
2023-05-02T03:43:35.339Z,8.40
2023-05-02T03:46:08.438Z,7.70
2023-05-02T03:48:38.855Z,6.67
2023-05-02T03:51:10.043Z,4.93
2023-05-02T03:53:38.663Z,7.30
2023-05-02T03:56:08.241Z,7.07
2023-05-02T03:58:37.372Z,8.20
2023-05-02T04:01:05.434Z,8.13
2023-05-02T04:03:33.704Z,5.87
2023-05-02T04:06:03.304Z,8.30
2023-05-02T04:08:31.683Z,9.10
2023-05-02T04:10:59.779Z,9.57
2023-05-02T04:13:29.324Z,4.73
2023-05-02T04:15:57.865Z,6.67
2023-05-02T04:18:27.481Z,9.07
2023-05-02T04:20:55.783Z,9.60
2023-05-02T04:23:25.290Z,8.30
2023-05-02T04:25:54.452Z,8.67
2023-05-02T04:28:23.381Z,6.27
2023-05-02T04:30:51.920Z,5.57
2023-05-02T04:33:20.535Z,6.70
2023-05-02T04:35:48.613Z,9.10
2023-05-02T04:38:17.790Z,9.07
2023-05-02T04:40:47.757Z,9.97
2023-05-02T04:43:16.718Z,6.77
2023-05-02T04:45:45.205Z,5.53
2023-05-02T04:48:16.506Z,5.83
2023-05-02T04:50:47.083Z,8.13
2023-05-02T04:53:15.552Z,5.80
2023-05-02T04:55:44.573Z,6.53
2023-05-02T04:58:14.261Z,7.67
2023-05-02T05:00:44.028Z,8.87
2023-05-02T05:03:13.131Z,7.33
2023-05-02T05:05:41.448Z,8.93
2023-05-02T05:08:12.583Z,5.00
2023-05-02T05:10:43.370Z,7.17
2023-05-02T05:13:12.868Z,7.10
2023-05-02T05:15:45.050Z,4.73
2023-05-02T05:18:14.403Z,6.90
2023-05-02T05:20:42.867Z,5.53
2023-05-02T05:23:11.043Z,8.63
2023-05-02T05:25:41.071Z,7.78
2023-05-02T05:28:10.510Z,6.30
2023-05-02T05:30:39.157Z,6.00
2023-05-02T05:33:10.341Z,14.48
2023-05-02T05:35:39.189Z,6.28
2023-05-02T05:38:07.277Z,7.07
2023-05-02T05:40:35.480Z,5.78
2023-05-02T05:43:03.738Z,6.55
2023-05-02T05:45:31.935Z,6.85
2023-05-02T05:48:00.818Z,8.43
2023-05-02T05:50:31.882Z,7.95
2023-05-02T05:53:02.209Z,7.95
2023-05-02T05:55:30.483Z,7.30
2023-05-02T05:57:58.483Z,4.57
2023-05-02T06:00:27.635Z,6.50
2023-05-02T06:02:56.050Z,5.65
2023-05-02T06:05:24.501Z,6.55
2023-05-02T06:07:54.213Z,6.53
2023-05-02T06:10:22.590Z,5.63
2023-05-02T06:12:51.079Z,7.43
2023-05-02T06:15:19.831Z,10.65
2023-05-02T06:17:48.263Z,8.70
2023-05-02T06:20:18.831Z,5.93
2023-05-02T06:22:47.209Z,5.88
2023-05-02T06:25:17.798Z,14.27
2023-05-02T06:27:48.507Z,5.72
2023-05-02T06:30:16.771Z,6.30
2023-05-02T06:32:45.008Z,8.88
2023-05-02T06:35:15.213Z,7.43
2023-05-02T06:37:44.089Z,5.75
2023-05-02T06:40:13.759Z,7.05
2023-05-02T06:42:45.884Z,6.28
2023-05-02T06:45:14.048Z,6.80
2023-05-02T06:47:42.647Z,6.50
2023-05-02T06:50:12.796Z,6.03
2023-05-02T06:52:49.918Z,5.95
2023-05-02T06:55:18.365Z,6.72
2023-05-02T06:57:49.768Z,7.85
2023-05-02T07:00:19.524Z,4.35
2023-05-02T07:02:49.263Z,5.60
2023-05-02T07:05:18.740Z,5.70
2023-05-02T07:07:48.347Z,4.72
2023-05-02T07:10:16.707Z,7.55
2023-05-02T07:12:48.024Z,6.63
2023-05-02T07:15:16.796Z,4.93
2023-05-02T07:17:49.688Z,5.07
2023-05-02T07:20:17.916Z,4.25
2023-05-02T07:22:48.685Z,5.75
2023-05-02T07:25:17.396Z,3.42
2023-05-02T07:27:45.671Z,3.47
2023-05-02T07:30:15.481Z,6.40
2023-05-02T07:32:44.211Z,2.67
2023-05-02T07:35:12.958Z,3.78
2023-05-02T07:37:42.540Z,4.43
2023-05-02T07:40:12.640Z,4.82
2023-05-02T07:42:42.032Z,3.80
2023-05-02T07:45:14.624Z,2.97
2023-05-02T07:47:46.067Z,5.68
2023-05-02T07:50:14.599Z,2.70
2023-05-02T07:52:42.869Z,5.68
2023-05-02T07:55:13.402Z,2.13
2023-05-02T07:57:42.183Z,2.22
2023-05-02T08:00:11.856Z,5.07
2023-05-02T08:02:40.262Z,3.97
2023-05-02T08:05:11.325Z,5.60
2023-05-02T08:07:40.165Z,3.85
2023-05-02T08:10:11.542Z,3.05
2023-05-02T08:12:41.274Z,5.40
2023-05-02T08:15:13.752Z,3.45
2023-05-02T08:17:42.089Z,4.32
2023-05-02T08:20:12.732Z,3.22
2023-05-02T08:22:41.110Z,3.25
2023-05-02T08:25:11.334Z,4.03
2023-05-02T08:27:51.284Z,3.08
2023-05-02T08:30:22.327Z,2.92
2023-05-02T08:32:59.472Z,6.25
2023-05-02T08:35:30.480Z,7.55
2023-05-02T08:38:00.265Z,5.60
2023-05-02T08:40:40.811Z,3.38
2023-05-02T08:43:13.147Z,6.80
2023-05-02T08:45:43.976Z,6.10
2023-05-02T08:48:17.193Z,4.07
2023-05-02T08:50:48.660Z,4.38
2023-05-02T08:53:22.407Z,5.03
2023-05-02T08:55:51.329Z,5.32
2023-05-02T08:58:20.079Z,4.70
2023-05-02T09:00:55.026Z,4.65
2023-05-02T09:03:31.969Z,3.75
2023-05-02T09:06:13.028Z,5.50
2023-05-02T09:08:49.404Z,4.50
2023-05-02T09:11:18.925Z,5.40
2023-05-02T09:13:52.041Z,6.50
2023-05-02T09:16:23.594Z,7.70
2023-05-02T09:18:55.249Z,6.38
2023-05-02T09:21:26.904Z,3.85
2023-05-02T09:23:57.456Z,3.78
2023-05-02T09:26:33.937Z,4.60
2023-05-02T09:29:11.931Z,9.68
2023-05-02T09:34:14.473Z,5.63
2023-05-02T09:36:47.019Z,7.30
2023-05-02T09:39:19.158Z,5.75
2023-05-02T09:41:51.518Z,5.07
2023-05-02T09:44:21.285Z,4.30
2023-05-02T09:46:51.127Z,6.43
2023-05-02T09:49:22.045Z,5.13
2023-05-02T09:52:16.816Z,9.30
2023-05-02T09:54:48.669Z,6.00
2023-05-02T09:57:17.381Z,9.10
2023-05-02T10:00:00.913Z,8.43
2023-05-02T10:02:34.314Z,6.32
2023-05-02T10:05:05.476Z,6.75
2023-05-02T10:07:37.659Z,5.90
2023-05-02T10:10:10.250Z,6.30
2023-05-02T10:12:43.332Z,5.43
2023-05-02T10:15:18.150Z,7.13
2023-05-02T10:17:50.910Z,8.48
2023-05-02T10:20:25.152Z,6.05
2023-05-02T10:23:02.626Z,7.28
2023-05-02T10:25:33.180Z,5.65
2023-05-02T10:28:11.261Z,7.65
2023-05-02T10:30:41.788Z,6.20
2023-05-02T10:33:10.092Z,9.25
2023-05-02T10:35:49.916Z,6.18
2023-05-02T10:38:24.958Z,11.63
2023-05-02T10:41:00.374Z,13.32
2023-05-02T10:43:33.842Z,25.33
2023-05-02T10:46:05.113Z,23.38
2023-05-02T10:48:34.640Z,18.60
2023-05-02T10:51:04.302Z,25.52
2023-05-02T10:53:37.722Z,14.23
2023-05-02T10:56:23.125Z,9.10
2023-05-02T10:58:56.047Z,6.75
2023-05-02T11:01:40.294Z,5.97
2023-05-02T11:04:11.340Z,11.90
2023-05-02T11:07:18.082Z,6.63
2023-05-02T11:09:51.358Z,8.60
2023-05-02T11:12:45.400Z,6.10
2023-05-02T11:15:14.052Z,8.50
2023-05-02T11:18:02.086Z,12.85
2023-05-02T11:20:33.099Z,9.25
2023-05-02T11:23:27.961Z,8.35
2023-05-02T11:26:01.597Z,10.02
2023-05-02T11:28:48.126Z,8.55
2023-05-02T11:31:57.068Z,9.85
2023-05-02T11:34:27.003Z,8.23
2023-05-02T11:36:56.508Z,9.27
2023-05-02T11:39:24.926Z,11.48
2023-05-02T11:41:55.730Z,12.10
2023-05-02T11:44:24.815Z,11.45
2023-05-02T11:46:55.544Z,11.98
2023-05-02T11:49:24.817Z,11.23
2023-05-02T11:51:55.384Z,9.82
2023-05-02T11:54:24.789Z,10.27
2023-05-02T11:56:55.861Z,7.95
2023-05-02T11:59:26.869Z,9.02
2023-05-02T12:01:56.436Z,11.02
2023-05-02T12:04:26.836Z,15.88
2023-05-02T12:07:02.026Z,14.68
2023-05-02T12:09:31.593Z,16.58
2023-05-02T12:12:03.060Z,11.80
2023-05-02T12:14:35.734Z,14.48
2023-05-02T12:17:08.288Z,14.82
2023-05-02T12:19:40.358Z,16.63
2023-05-02T12:22:10.915Z,11.55
2023-05-02T12:24:39.746Z,16.50
2023-05-02T12:27:17.315Z,12.80
2023-05-02T12:29:47.702Z,11.90
2023-05-02T12:32:17.027Z,9.77
2023-05-02T12:34:45.449Z,9.88
2023-05-02T12:37:14.480Z,8.50
2023-05-02T12:39:47.620Z,9.15
2023-05-02T12:42:21.406Z,8.63
2023-05-02T12:44:52.824Z,13.23
2023-05-02T12:47:25.317Z,8.05
2023-05-02T12:49:55.080Z,8.77
2023-05-02T12:52:45.815Z,8.82
2023-05-02T12:55:18.086Z,7.65
2023-05-02T12:57:51.070Z,6.82
2023-05-02T13:00:22.581Z,6.97
2023-05-02T13:02:51.005Z,5.93
2023-05-02T13:05:23.173Z,5.65
2023-05-02T13:07:51.680Z,5.45
2023-05-02T13:10:24.900Z,5.75
2023-05-02T13:12:58.557Z,4.00
2023-05-02T13:15:27.864Z,6.45
2023-05-02T13:17:57.072Z,6.93
2023-05-02T13:20:28.668Z,4.85
2023-05-02T13:22:56.911Z,5.40
2023-05-02T13:25:29.590Z,7.43
2023-05-02T13:28:03.053Z,5.53
2023-05-02T13:30:47.248Z,5.18
2023-05-02T13:33:18.199Z,5.55
2023-05-02T13:35:46.788Z,7.75
2023-05-02T13:38:23.067Z,5.65
2023-05-02T13:40:54.242Z,7.15
2023-05-02T13:43:27.312Z,9.15
2023-05-02T13:45:58.035Z,3.88
2023-05-02T13:48:26.630Z,4.75
2023-05-02T13:51:02.646Z,3.90
2023-05-02T13:53:33.866Z,5.85
2023-05-02T13:56:08.635Z,4.32
2023-05-02T13:58:47.496Z,4.57
2023-05-02T14:01:18.855Z,6.10
2023-05-02T14:03:48.158Z,6.78
2023-05-02T14:06:22.719Z,5.25
2023-05-02T14:08:56.936Z,4.32
2023-05-02T14:11:26.147Z,8.48
2023-05-02T14:13:58.485Z,5.20
2023-05-02T14:16:27.365Z,6.85
2023-05-02T14:18:58.068Z,6.07
2023-05-02T14:21:27.587Z,5.90
2023-05-02T14:23:58.329Z,6.60
2023-05-02T14:26:26.597Z,6.07
2023-05-02T14:28:57.203Z,4.55
2023-05-02T14:31:28.914Z,5.35
2023-05-02T14:33:59.915Z,5.63
2023-05-02T14:36:32.041Z,4.57
2023-05-02T14:39:00.193Z,7.15
2023-05-02T14:41:32.439Z,4.65
2023-05-02T14:44:07.138Z,4.97
2023-05-02T14:46:38.536Z,5.40
2023-05-02T14:49:07.052Z,7.57
2023-05-02T14:51:35.326Z,4.45
2023-05-02T14:54:04.757Z,8.63
2023-05-02T14:56:33.938Z,4.72
2023-05-02T14:59:03.681Z,5.75
2023-05-02T15:01:34.387Z,4.43
2023-05-02T15:04:06.875Z,4.57
2023-05-02T15:06:36.741Z,5.22
2023-05-02T15:09:06.034Z,8.60
2023-05-02T15:11:34.950Z,5.32
2023-05-02T15:14:07.395Z,5.78
2023-05-02T15:16:37.345Z,4.18
2023-05-02T15:19:07.998Z,5.32
2023-05-02T15:21:39.986Z,4.75
2023-05-02T15:24:16.187Z,4.53
2023-05-02T15:26:49.998Z,5.45
2023-05-02T15:29:20.563Z,5.57
2023-05-02T15:31:50.373Z,5.60
2023-05-02T15:34:19.278Z,5.00
2023-05-02T15:36:49.500Z,5.63
2023-05-02T15:39:20.715Z,6.32
2023-05-02T15:41:48.794Z,7.65
2023-05-02T15:44:19.695Z,7.68
2023-05-02T15:46:48.239Z,5.20
2023-05-02T15:49:18.768Z,5.75
2023-05-02T15:51:47.194Z,4.28
2023-05-02T15:54:15.422Z,5.57
2023-05-02T15:56:48.733Z,6.80
2023-05-02T15:59:18.988Z,6.50
2023-05-02T16:01:52.961Z,6.00
2023-05-02T16:04:25.307Z,6.65
2023-05-02T16:06:59.982Z,5.57
2023-05-02T16:09:28.473Z,5.10
2023-05-02T16:11:56.947Z,5.88
2023-05-02T16:14:26.816Z,7.05
2023-05-02T16:17:00.520Z,5.22
2023-05-02T16:19:30.998Z,5.75
2023-05-02T16:22:02.496Z,5.28
2023-05-02T16:24:34.185Z,5.15
2023-05-02T16:27:03.753Z,6.25
2023-05-02T16:29:32.245Z,6.78
2023-05-02T16:32:02.206Z,4.97
2023-05-02T16:34:32.943Z,5.35
2023-05-02T16:37:06.831Z,6.35
2023-05-02T16:39:38.046Z,6.93
2023-05-02T16:42:08.359Z,6.13
2023-05-02T16:44:40.101Z,5.18
2023-05-02T16:47:11.217Z,5.80
2023-05-02T16:50:03.506Z,5.60
2023-05-02T16:52:32.435Z,7.68
2023-05-02T16:55:04.538Z,6.22
2023-05-02T16:57:33.108Z,5.72
2023-05-02T17:00:04.833Z,8.63
2023-05-02T17:02:36.910Z,6.57
2023-05-02T17:05:06.784Z,8.38
2023-05-02T17:07:34.837Z,5.50
2023-05-02T17:10:06.820Z,5.38
2023-05-02T17:12:39.207Z,6.85
2023-05-02T17:15:09.502Z,5.35
2023-05-02T17:17:38.986Z,8.55
2023-05-02T17:20:11.428Z,9.27
2023-05-02T17:22:41.732Z,6.10
2023-05-02T17:25:12.850Z,6.85
2023-05-02T17:27:42.136Z,6.85
2023-05-02T17:30:13.676Z,7.78
2023-05-02T17:32:45.457Z,7.70
2023-05-02T17:35:18.851Z,6.28
2023-05-02T17:38:02.094Z,7.35
2023-05-02T17:40:31.076Z,9.70
2023-05-02T17:42:59.737Z,7.18
2023-05-02T17:45:32.266Z,10.77
2023-05-02T17:48:13.737Z,6.05
2023-05-02T17:50:43.460Z,4.82
2023-05-02T17:53:11.814Z,4.95
2023-05-02T17:55:46.373Z,8.60
2023-05-02T17:58:14.864Z,5.75
2023-05-02T18:00:44.165Z,7.90
2023-05-02T18:03:14.054Z,8.00
2023-05-02T18:05:46.044Z,6.32
2023-05-02T18:08:17.524Z,6.50
2023-05-02T18:10:58.254Z,9.25
2023-05-02T18:13:39.905Z,7.38
2023-05-02T18:16:08.147Z,8.88
2023-05-02T18:18:39.068Z,7.70
2023-05-02T18:21:10.607Z,6.88
2023-05-02T18:23:40.435Z,7.50
2023-05-02T18:26:15.289Z,6.72
2023-05-02T18:28:48.681Z,7.50
2023-05-02T18:31:18.950Z,8.13
2023-05-02T18:33:49.765Z,8.88
2023-05-02T18:36:27.677Z,5.97
2023-05-02T18:39:00.102Z,7.78
2023-05-02T18:41:31.095Z,7.95
2023-05-02T18:44:01.010Z,6.97
2023-05-02T18:46:29.696Z,8.35
2023-05-02T18:49:00.919Z,4.75
2023-05-02T18:51:30.209Z,6.82
2023-05-02T18:53:59.131Z,5.43
2023-05-02T18:56:28.524Z,6.00
2023-05-02T18:58:56.970Z,7.13
2023-05-02T19:01:28.488Z,4.82
2023-05-02T19:03:57.284Z,6.53
2023-05-02T19:06:28.821Z,5.63
2023-05-02T19:08:56.870Z,5.55
2023-05-02T19:11:25.688Z,6.13
2023-05-02T19:13:59.933Z,7.70
2023-05-02T19:16:30.422Z,4.82
2023-05-02T19:18:59.341Z,6.15
2023-05-02T19:21:31.190Z,7.57
2023-05-02T19:24:03.122Z,7.22
2023-05-02T19:26:32.349Z,6.63
2023-05-02T19:29:00.893Z,6.90
2023-05-02T19:31:29.091Z,6.22
2023-05-02T19:33:57.296Z,9.18
2023-05-02T19:36:27.708Z,6.88
2023-05-02T19:38:58.419Z,5.70
2023-05-02T19:41:27.507Z,9.07
2023-05-02T19:43:59.002Z,12.40
2023-05-02T19:46:27.220Z,9.63
2023-05-02T19:48:55.808Z,9.32
2023-05-02T19:51:28.202Z,9.65
2023-05-02T19:54:00.305Z,6.40
2023-05-02T19:56:30.455Z,6.00
2023-05-02T19:59:01.415Z,7.97
2023-05-02T20:01:31.887Z,6.88
2023-05-02T20:04:00.577Z,6.93
2023-05-02T20:06:29.461Z,8.73
2023-05-02T20:09:03.952Z,5.97
2023-05-02T20:11:34.750Z,8.18
2023-05-02T20:14:03.256Z,9.90
2023-05-02T20:16:33.659Z,8.45
2023-05-02T20:19:02.586Z,6.95
2023-05-02T20:21:34.900Z,9.30
2023-05-02T20:24:05.697Z,6.97
2023-05-02T20:26:35.121Z,6.77
2023-05-02T20:29:06.200Z,5.15
2023-05-02T20:31:48.998Z,6.07
2023-05-02T20:34:18.006Z,4.68
2023-05-02T20:36:46.558Z,7.17
2023-05-02T20:39:21.118Z,7.67
2023-05-02T20:41:49.805Z,7.63
2023-05-02T20:44:22.588Z,5.33
2023-05-02T20:46:52.813Z,7.65
2023-05-02T20:49:24.185Z,7.90
2023-05-02T20:51:52.721Z,9.30
2023-05-02T20:54:22.254Z,9.90
2023-05-02T20:56:51.015Z,6.25
2023-05-02T20:59:19.769Z,10.23
2023-05-02T21:02:00.173Z,6.13
2023-05-02T21:04:29.721Z,6.87
2023-05-02T21:06:58.754Z,12.27
2023-05-02T21:09:31.442Z,6.53
2023-05-02T21:12:05.735Z,7.93
2023-05-02T21:14:37.236Z,5.97
2023-05-02T21:17:06.896Z,6.50
2023-05-02T21:19:34.962Z,7.50
2023-05-02T21:22:04.255Z,7.53
2023-05-02T21:24:34.303Z,6.50
2023-05-02T21:27:03.883Z,7.07
2023-05-02T21:29:32.981Z,5.83
2023-05-02T21:32:01.315Z,4.57
2023-05-02T21:34:31.938Z,5.00
2023-05-02T21:37:02.846Z,6.50
2023-05-02T21:39:33.478Z,5.37
2023-05-02T21:42:03.264Z,5.70
2023-05-02T21:44:32.994Z,5.67
2023-05-02T21:47:04.048Z,5.20
2023-05-02T21:49:32.505Z,8.43
2023-05-02T21:52:01.216Z,11.97
2023-05-02T21:54:32.206Z,7.37
2023-05-02T21:57:00.782Z,5.50
2023-05-02T21:59:31.605Z,4.83
2023-05-02T22:01:59.803Z,4.83
2023-05-02T22:04:38.154Z,7.07
2023-05-02T22:07:09.440Z,4.53
2023-05-02T22:09:40.377Z,4.37
2023-05-02T22:12:09.304Z,4.80
2023-05-02T22:14:45.359Z,4.23
2023-05-02T22:17:14.358Z,4.83
2023-05-02T22:19:42.709Z,4.37
2023-05-02T22:22:11.326Z,5.00
2023-05-02T22:24:41.948Z,7.60
2023-05-02T22:27:10.552Z,5.53
2023-05-02T22:29:40.524Z,5.23
2023-05-02T22:32:11.384Z,7.07
2023-05-02T22:34:39.624Z,4.50
2023-05-02T22:37:07.920Z,4.70
2023-05-02T22:39:36.594Z,4.90
2023-05-02T22:42:05.043Z,5.53
2023-05-02T22:44:37.906Z,4.93
2023-05-02T22:47:15.605Z,4.30
2023-05-02T22:49:44.990Z,4.73
2023-05-02T22:52:15.728Z,5.40
2023-05-02T22:54:46.466Z,6.73
2023-05-02T22:57:15.974Z,5.37
2023-05-02T22:59:43.961Z,4.30
2023-05-02T23:02:16.307Z,5.23
2023-05-02T23:04:44.476Z,6.27
2023-05-02T23:07:14.932Z,4.43
2023-05-02T23:09:44.438Z,3.83
2023-05-02T23:12:12.846Z,3.37
2023-05-02T23:14:43.390Z,4.83
2023-05-02T23:17:11.565Z,4.07
2023-05-02T23:19:44.784Z,4.47
2023-05-02T23:22:16.023Z,3.07
2023-05-02T23:24:46.457Z,4.97
2023-05-02T23:27:14.813Z,4.17
2023-05-02T23:29:42.902Z,3.33
2023-05-02T23:32:12.055Z,5.03
2023-05-02T23:34:41.838Z,6.37
2023-05-02T23:37:10.193Z,2.57
2023-05-02T23:39:38.488Z,3.47
2023-05-02T23:42:08.850Z,2.77
2023-05-02T23:44:37.497Z,3.37
2023-05-02T23:47:06.910Z,3.33
2023-05-02T23:49:37.812Z,4.53
2023-05-02T23:52:09.066Z,3.33
2023-05-02T23:54:37.536Z,2.70
2023-05-02T23:57:09.404Z,2.83
2023-05-02T23:59:37.654Z,3.83
